sensor_id;sensor_type;location;lat;lon;timestamp;P1;durP1;ratioP1;P2;durP2;ratioP2
20203;SDS011;10261;49.010;12.034;2022-12-07T00:00:15;3.70;;;3.30;;
20203;SDS011;10261;49.010;12.034;2022-12-07T00:01:20;5.43;;;3.47;;
20203;SDS011;10261;49.010;12.034;2022-12-07T00:02:24;4.07;;;3.67;;
20203;SDS011;10261;49.010;12.034;2022-12-07T00:03:26;3.97;;;3.58;;
20203;SDS011;10261;49.010;12.034;2022-12-07T00:04:29;3.53;;;3.20;;
20203;SDS011;10261;49.010;12.034;2022-12-07T00:05:33;4.45;;;3.42;;
20203;SDS011;10261;49.010;12.034;2022-12-07T00:06:36;4.15;;;3.10;;
20203;SDS011;10261;49.010;12.034;2022-12-07T00:07:40;3.75;;;2.83;;
20203;SDS011;10261;49.010;12.034;2022-12-07T00:08:42;3.90;;;2.95;;
20203;SDS011;10261;49.010;12.034;2022-12-07T00:09:46;4.05;;;3.35;;
20203;SDS011;10261;49.010;12.034;2022-12-07T00:10:49;3.92;;;3.28;;
20203;SDS011;10261;49.010;12.034;2022-12-07T00:11:51;4.72;;;3.53;;
20203;SDS011;10261;49.010;12.034;2022-12-07T00:12:54;4.15;;;2.63;;
20203;SDS011;10261;49.010;12.034;2022-12-07T00:13:57;5.38;;;3.45;;
20203;SDS011;10261;49.010;12.034;2022-12-07T00:15:02;3.15;;;2.83;;
20203;SDS011;10261;49.010;12.034;2022-12-07T00:16:05;4.47;;;3.83;;
20203;SDS011;10261;49.010;12.034;2022-12-07T00:17:11;3.70;;;3.20;;
20203;SDS011;10261;49.010;12.034;2022-12-07T00:18:13;4.35;;;3.63;;
20203;SDS011;10261;49.010;12.034;2022-12-07T00:19:16;4.55;;;3.17;;
20203;SDS011;10261;49.010;12.034;2022-12-07T00:20:19;4.38;;;3.30;;
20203;SDS011;10261;49.010;12.034;2022-12-07T00:21:22;5.22;;;3.80;;
20203;SDS011;10261;49.010;12.034;2022-12-07T00:22:26;3.55;;;3.15;;
20203;SDS011;10261;49.010;12.034;2022-12-07T00:23:29;3.78;;;2.90;;
20203;SDS011;10261;49.010;12.034;2022-12-07T00:24:31;5.15;;;3.08;;
20203;SDS011;10261;49.010;12.034;2022-12-07T00:25:34;4.40;;;3.60;;
20203;SDS011;10261;49.010;12.034;2022-12-07T00:26:37;4.25;;;3.47;;
20203;SDS011;10261;49.010;12.034;2022-12-07T00:27:41;5.15;;;3.40;;
20203;SDS011;10261;49.010;12.034;2022-12-07T00:28:44;4.32;;;3.20;;
20203;SDS011;10261;49.010;12.034;2022-12-07T00:29:48;3.20;;;2.90;;
20203;SDS011;10261;49.010;12.034;2022-12-07T00:30:50;4.15;;;3.25;;
20203;SDS011;10261;49.010;12.034;2022-12-07T00:31:52;3.63;;;3.33;;
20203;SDS011;10261;49.010;12.034;2022-12-07T00:32:57;3.55;;;3.13;;
20203;SDS011;10261;49.010;12.034;2022-12-07T00:33:59;3.20;;;2.88;;
20203;SDS011;10261;49.010;12.034;2022-12-07T00:35:02;3.35;;;2.83;;
20203;SDS011;10261;49.010;12.034;2022-12-07T00:36:05;3.53;;;2.78;;
20203;SDS011;10261;49.010;12.034;2022-12-07T00:37:10;2.97;;;2.70;;
20203;SDS011;10261;49.010;12.034;2022-12-07T00:38:13;3.67;;;3.35;;
20203;SDS011;10261;49.010;12.034;2022-12-07T00:39:16;4.63;;;3.30;;
20203;SDS011;10261;49.010;12.034;2022-12-07T00:40:19;3.75;;;3.20;;
20203;SDS011;10261;49.010;12.034;2022-12-07T00:41:22;3.72;;;3.33;;
20203;SDS011;10261;49.010;12.034;2022-12-07T00:42:26;4.15;;;3.75;;
20203;SDS011;10261;49.010;12.034;2022-12-07T00:43:28;3.20;;;2.90;;
20203;SDS011;10261;49.010;12.034;2022-12-07T00:44:31;4.43;;;3.75;;
20203;SDS011;10261;49.010;12.034;2022-12-07T00:45:33;3.80;;;3.25;;
20203;SDS011;10261;49.010;12.034;2022-12-07T00:46:36;3.65;;;3.17;;
20203;SDS011;10261;49.010;12.034;2022-12-07T00:47:38;4.07;;;3.50;;
20203;SDS011;10261;49.010;12.034;2022-12-07T00:48:42;3.72;;;3.42;;
20203;SDS011;10261;49.010;12.034;2022-12-07T00:49:44;5.07;;;3.55;;
20203;SDS011;10261;49.010;12.034;2022-12-07T00:50:47;4.10;;;3.28;;
20203;SDS011;10261;49.010;12.034;2022-12-07T00:51:50;3.65;;;3.15;;
20203;SDS011;10261;49.010;12.034;2022-12-07T00:52:53;3.80;;;3.15;;
20203;SDS011;10261;49.010;12.034;2022-12-07T00:53:54;4.13;;;3.70;;
20203;SDS011;10261;49.010;12.034;2022-12-07T00:54:57;4.78;;;3.10;;
20203;SDS011;10261;49.010;12.034;2022-12-07T00:56:04;3.25;;;2.95;;
20203;SDS011;10261;49.010;12.034;2022-12-07T00:57:07;3.78;;;3.00;;
20203;SDS011;10261;49.010;12.034;2022-12-07T00:58:09;3.83;;;3.17;;
20203;SDS011;10261;49.010;12.034;2022-12-07T00:59:13;4.50;;;3.45;;
20203;SDS011;10261;49.010;12.034;2022-12-07T01:00:16;5.55;;;3.65;;
20203;SDS011;10261;49.010;12.034;2022-12-07T01:01:18;4.55;;;3.90;;
20203;SDS011;10261;49.010;12.034;2022-12-07T01:02:22;3.58;;;3.17;;
20203;SDS011;10261;49.010;12.034;2022-12-07T01:03:24;4.55;;;3.60;;
20203;SDS011;10261;49.010;12.034;2022-12-07T01:04:28;3.67;;;3.15;;
20203;SDS011;10261;49.010;12.034;2022-12-07T01:05:30;3.38;;;2.95;;
20203;SDS011;10261;49.010;12.034;2022-12-07T01:06:33;8.43;;;3.38;;
20203;SDS011;10261;49.010;12.034;2022-12-07T01:07:35;3.45;;;3.00;;
20203;SDS011;10261;49.010;12.034;2022-12-07T01:08:38;4.85;;;4.28;;
20203;SDS011;10261;49.010;12.034;2022-12-07T01:09:40;3.30;;;3.00;;
20203;SDS011;10261;49.010;12.034;2022-12-07T01:10:43;3.42;;;3.00;;
20203;SDS011;10261;49.010;12.034;2022-12-07T01:11:45;3.72;;;3.03;;
20203;SDS011;10261;49.010;12.034;2022-12-07T01:12:48;6.40;;;3.65;;
20203;SDS011;10261;49.010;12.034;2022-12-07T01:13:51;4.25;;;3.25;;
20203;SDS011;10261;49.010;12.034;2022-12-07T01:14:54;3.40;;;3.10;;
20203;SDS011;10261;49.010;12.034;2022-12-07T01:15:57;3.90;;;3.50;;
20203;SDS011;10261;49.010;12.034;2022-12-07T01:17:01;3.75;;;3.35;;
20203;SDS011;10261;49.010;12.034;2022-12-07T01:18:04;7.15;;;3.40;;
20203;SDS011;10261;49.010;12.034;2022-12-07T01:19:06;3.60;;;3.30;;
20203;SDS011;10261;49.010;12.034;2022-12-07T01:20:11;4.20;;;3.80;;
20203;SDS011;10261;49.010;12.034;2022-12-07T01:21:15;4.13;;;3.72;;
20203;SDS011;10261;49.010;12.034;2022-12-07T01:22:22;4.05;;;3.67;;
20203;SDS011;10261;49.010;12.034;2022-12-07T01:23:25;3.33;;;3.00;;
20203;SDS011;10261;49.010;12.034;2022-12-07T01:24:27;3.60;;;3.30;;
20203;SDS011;10261;49.010;12.034;2022-12-07T01:25:30;3.75;;;3.25;;
20203;SDS011;10261;49.010;12.034;2022-12-07T01:26:32;4.22;;;3.38;;
20203;SDS011;10261;49.010;12.034;2022-12-07T01:27:35;3.50;;;3.20;;
20203;SDS011;10261;49.010;12.034;2022-12-07T01:28:37;3.60;;;3.30;;
20203;SDS011;10261;49.010;12.034;2022-12-07T01:29:41;3.90;;;3.50;;
20203;SDS011;10261;49.010;12.034;2022-12-07T01:30:43;3.25;;;2.95;;
20203;SDS011;10261;49.010;12.034;2022-12-07T01:31:48;4.15;;;3.75;;
20203;SDS011;10261;49.010;12.034;2022-12-07T01:32:50;3.65;;;3.35;;
20203;SDS011;10261;49.010;12.034;2022-12-07T01:33:54;3.42;;;3.13;;
20203;SDS011;10261;49.010;12.034;2022-12-07T01:34:57;3.95;;;3.40;;
20203;SDS011;10261;49.010;12.034;2022-12-07T01:36:02;3.67;;;3.22;;
20203;SDS011;10261;49.010;12.034;2022-12-07T01:37:04;4.38;;;3.58;;
20203;SDS011;10261;49.010;12.034;2022-12-07T01:38:07;3.38;;;2.92;;
20203;SDS011;10261;49.010;12.034;2022-12-07T01:39:09;3.13;;;2.65;;
20203;SDS011;10261;49.010;12.034;2022-12-07T01:40:12;3.30;;;2.72;;
20203;SDS011;10261;49.010;12.034;2022-12-07T01:41:14;3.88;;;3.40;;
20203;SDS011;10261;49.010;12.034;2022-12-07T01:42:18;3.30;;;3.00;;
20203;SDS011;10261;49.010;12.034;2022-12-07T01:43:20;2.97;;;2.67;;
20203;SDS011;10261;49.010;12.034;2022-12-07T01:44:25;3.75;;;3.28;;
20203;SDS011;10261;49.010;12.034;2022-12-07T01:45:36;4.35;;;3.10;;
20203;SDS011;10261;49.010;12.034;2022-12-07T01:46:42;3.55;;;2.92;;
20203;SDS011;10261;49.010;12.034;2022-12-07T01:47:48;5.50;;;3.83;;
20203;SDS011;10261;49.010;12.034;2022-12-07T01:48:53;3.88;;;3.33;;
20203;SDS011;10261;49.010;12.034;2022-12-07T01:49:56;3.58;;;3.28;;
20203;SDS011;10261;49.010;12.034;2022-12-07T01:51:00;4.97;;;3.40;;
20203;SDS011;10261;49.010;12.034;2022-12-07T01:52:10;3.83;;;3.00;;
20203;SDS011;10261;49.010;12.034;2022-12-07T01:53:16;4.07;;;3.15;;
20203;SDS011;10261;49.010;12.034;2022-12-07T01:54:19;3.70;;;3.30;;
20203;SDS011;10261;49.010;12.034;2022-12-07T01:55:23;4.22;;;3.72;;
20203;SDS011;10261;49.010;12.034;2022-12-07T01:56:26;3.00;;;2.70;;
20203;SDS011;10261;49.010;12.034;2022-12-07T01:57:29;4.40;;;3.10;;
20203;SDS011;10261;49.010;12.034;2022-12-07T01:58:35;3.90;;;3.60;;
20203;SDS011;10261;49.010;12.034;2022-12-07T01:59:38;3.25;;;2.95;;
20203;SDS011;10261;49.010;12.034;2022-12-07T02:00:41;5.03;;;3.55;;
20203;SDS011;10261;49.010;12.034;2022-12-07T02:01:43;6.40;;;3.92;;
20203;SDS011;10261;49.010;12.034;2022-12-07T02:02:47;4.53;;;3.22;;
20203;SDS011;10261;49.010;12.034;2022-12-07T02:03:54;3.30;;;2.88;;
20203;SDS011;10261;49.010;12.034;2022-12-07T02:04:58;3.40;;;3.10;;
20203;SDS011;10261;49.010;12.034;2022-12-07T02:06:04;3.30;;;3.00;;
20203;SDS011;10261;49.010;12.034;2022-12-07T02:07:08;3.55;;;3.10;;
20203;SDS011;10261;49.010;12.034;2022-12-07T02:08:10;4.03;;;3.30;;
20203;SDS011;10261;49.010;12.034;2022-12-07T02:09:15;3.78;;;3.40;;
20203;SDS011;10261;49.010;12.034;2022-12-07T02:10:18;3.55;;;2.83;;
20203;SDS011;10261;49.010;12.034;2022-12-07T02:11:22;3.95;;;3.55;;
20203;SDS011;10261;49.010;12.034;2022-12-07T02:12:24;4.25;;;3.38;;
20203;SDS011;10261;49.010;12.034;2022-12-07T02:13:28;4.00;;;3.47;;
20203;SDS011;10261;49.010;12.034;2022-12-07T02:14:33;4.43;;;3.97;;
20203;SDS011;10261;49.010;12.034;2022-12-07T02:15:39;4.20;;;3.83;;
20203;SDS011;10261;49.010;12.034;2022-12-07T02:17:03;9.85;;;4.15;;
20203;SDS011;10261;49.010;12.034;2022-12-07T02:18:14;4.57;;;3.58;;
20203;SDS011;10261;49.010;12.034;2022-12-07T02:21:18;4.20;;;3.50;;
20203;SDS011;10261;49.010;12.034;2022-12-07T02:22:32;5.70;;;3.92;;
20203;SDS011;10261;49.010;12.034;2022-12-07T02:24:13;4.47;;;3.65;;
20203;SDS011;10261;49.010;12.034;2022-12-07T02:25:22;5.10;;;3.97;;
20203;SDS011;10261;49.010;12.034;2022-12-07T02:26:48;4.68;;;3.63;;
20203;SDS011;10261;49.010;12.034;2022-12-07T02:28:09;4.60;;;4.18;;
20203;SDS011;10261;49.010;12.034;2022-12-07T02:29:22;4.78;;;3.63;;
20203;SDS011;10261;49.010;12.034;2022-12-07T02:30:27;4.32;;;3.90;;
20203;SDS011;10261;49.010;12.034;2022-12-07T02:31:33;5.05;;;3.53;;
20203;SDS011;10261;49.010;12.034;2022-12-07T02:32:40;5.15;;;4.38;;
20203;SDS011;10261;49.010;12.034;2022-12-07T02:33:48;6.18;;;4.13;;
20203;SDS011;10261;49.010;12.034;2022-12-07T02:34:55;5.20;;;3.90;;
20203;SDS011;10261;49.010;12.034;2022-12-07T02:36:06;6.05;;;4.70;;
20203;SDS011;10261;49.010;12.034;2022-12-07T02:37:16;4.70;;;3.88;;
20203;SDS011;10261;49.010;12.034;2022-12-07T02:38:29;4.55;;;4.15;;
20203;SDS011;10261;49.010;12.034;2022-12-07T02:39:37;3.70;;;3.40;;
20203;SDS011;10261;49.010;12.034;2022-12-07T02:40:47;4.75;;;4.30;;
20203;SDS011;10261;49.010;12.034;2022-12-07T02:41:54;4.30;;;3.90;;
20203;SDS011;10261;49.010;12.034;2022-12-07T02:43:02;5.07;;;4.20;;
20203;SDS011;10261;49.010;12.034;2022-12-07T02:44:10;5.60;;;4.03;;
20203;SDS011;10261;49.010;12.034;2022-12-07T02:45:18;8.15;;;4.80;;
20203;SDS011;10261;49.010;12.034;2022-12-07T02:46:25;4.65;;;3.90;;
20203;SDS011;10261;49.010;12.034;2022-12-07T02:47:31;4.15;;;3.80;;
20203;SDS011;10261;49.010;12.034;2022-12-07T02:48:35;4.90;;;4.40;;
20203;SDS011;10261;49.010;12.034;2022-12-07T02:49:39;4.38;;;3.95;;
20203;SDS011;10261;49.010;12.034;2022-12-07T02:50:44;5.00;;;4.50;;
20203;SDS011;10261;49.010;12.034;2022-12-07T02:51:48;6.20;;;4.40;;
20203;SDS011;10261;49.010;12.034;2022-12-07T02:52:50;6.53;;;4.70;;
20203;SDS011;10261;49.010;12.034;2022-12-07T02:53:53;7.97;;;4.55;;
20203;SDS011;10261;49.010;12.034;2022-12-07T02:54:56;4.95;;;4.45;;
20203;SDS011;10261;49.010;12.034;2022-12-07T02:55:59;5.43;;;4.40;;
20203;SDS011;10261;49.010;12.034;2022-12-07T02:57:07;6.22;;;4.20;;
20203;SDS011;10261;49.010;12.034;2022-12-07T02:58:23;4.55;;;3.90;;
20203;SDS011;10261;49.010;12.034;2022-12-07T02:59:42;4.63;;;3.83;;
20203;SDS011;10261;49.010;12.034;2022-12-07T03:00:55;6.60;;;4.28;;
20203;SDS011;10261;49.010;12.034;2022-12-07T03:02:09;4.15;;;3.75;;
20203;SDS011;10261;49.010;12.034;2022-12-07T03:03:23;5.78;;;4.28;;
20203;SDS011;10261;49.010;12.034;2022-12-07T03:04:31;5.55;;;4.18;;
20203;SDS011;10261;49.010;12.034;2022-12-07T03:05:49;4.80;;;4.30;;
20203;SDS011;10261;49.010;12.034;2022-12-07T03:07:05;5.40;;;4.85;;
20203;SDS011;10261;49.010;12.034;2022-12-07T03:08:13;5.95;;;4.55;;
20203;SDS011;10261;49.010;12.034;2022-12-07T03:09:24;5.07;;;4.32;;
20203;SDS011;10261;49.010;12.034;2022-12-07T03:10:35;6.03;;;4.00;;
20203;SDS011;10261;49.010;12.034;2022-12-07T03:11:49;4.88;;;4.30;;
20203;SDS011;10261;49.010;12.034;2022-12-07T03:12:58;5.30;;;3.90;;
20203;SDS011;10261;49.010;12.034;2022-12-07T03:14:08;5.07;;;4.20;;
20203;SDS011;10261;49.010;12.034;2022-12-07T03:15:18;5.53;;;4.80;;
20203;SDS011;10261;49.010;12.034;2022-12-07T03:16:30;5.55;;;4.57;;
20203;SDS011;10261;49.010;12.034;2022-12-07T03:17:37;7.13;;;4.95;;
20203;SDS011;10261;49.010;12.034;2022-12-07T03:18:46;6.32;;;4.63;;
20203;SDS011;10261;49.010;12.034;2022-12-07T03:19:51;8.10;;;5.20;;
20203;SDS011;10261;49.010;12.034;2022-12-07T03:21:01;7.07;;;4.88;;
20203;SDS011;10261;49.010;12.034;2022-12-07T03:22:08;5.90;;;4.90;;
20203;SDS011;10261;49.010;12.034;2022-12-07T03:23:13;4.80;;;4.07;;
20203;SDS011;10261;49.010;12.034;2022-12-07T03:24:19;5.13;;;4.47;;
20203;SDS011;10261;49.010;12.034;2022-12-07T03:25:23;7.05;;;5.35;;
20203;SDS011;10261;49.010;12.034;2022-12-07T03:26:28;6.53;;;4.55;;
20203;SDS011;10261;49.010;12.034;2022-12-07T03:27:35;5.70;;;3.80;;
20203;SDS011;10261;49.010;12.034;2022-12-07T03:28:42;6.80;;;4.55;;
20203;SDS011;10261;49.010;12.034;2022-12-07T03:29:49;5.40;;;4.20;;
20203;SDS011;10261;49.010;12.034;2022-12-07T03:30:56;5.90;;;4.90;;
20203;SDS011;10261;49.010;12.034;2022-12-07T03:32:05;5.95;;;5.03;;
20203;SDS011;10261;49.010;12.034;2022-12-07T03:33:14;6.22;;;3.90;;
20203;SDS011;10261;49.010;12.034;2022-12-07T03:34:23;5.32;;;4.43;;
20203;SDS011;10261;49.010;12.034;2022-12-07T03:35:32;6.30;;;4.80;;
20203;SDS011;10261;49.010;12.034;2022-12-07T03:36:37;6.82;;;4.47;;
20203;SDS011;10261;49.010;12.034;2022-12-07T03:37:47;6.15;;;4.78;;
20203;SDS011;10261;49.010;12.034;2022-12-07T03:38:54;5.68;;;4.75;;
20203;SDS011;10261;49.010;12.034;2022-12-07T03:40:04;5.63;;;4.68;;
20203;SDS011;10261;49.010;12.034;2022-12-07T03:41:14;6.20;;;4.60;;
20203;SDS011;10261;49.010;12.034;2022-12-07T03:42:21;8.00;;;5.22;;
20203;SDS011;10261;49.010;12.034;2022-12-07T03:43:23;8.00;;;4.65;;
20203;SDS011;10261;49.010;12.034;2022-12-07T03:44:26;7.22;;;4.68;;
20203;SDS011;10261;49.010;12.034;2022-12-07T03:45:31;8.30;;;5.90;;
20203;SDS011;10261;49.010;12.034;2022-12-07T03:46:42;5.43;;;4.30;;
20203;SDS011;10261;49.010;12.034;2022-12-07T03:47:50;7.53;;;5.68;;
20203;SDS011;10261;49.010;12.034;2022-12-07T03:49:04;7.20;;;5.50;;
20203;SDS011;10261;49.010;12.034;2022-12-07T03:50:12;8.82;;;6.60;;
20203;SDS011;10261;49.010;12.034;2022-12-07T03:51:22;6.03;;;4.72;;
20203;SDS011;10261;49.010;12.034;2022-12-07T03:52:30;6.75;;;5.43;;
20203;SDS011;10261;49.010;12.034;2022-12-07T03:53:39;6.85;;;5.65;;
20203;SDS011;10261;49.010;12.034;2022-12-07T03:54:47;5.70;;;4.88;;
20203;SDS011;10261;49.010;12.034;2022-12-07T03:55:54;6.35;;;5.05;;
20203;SDS011;10261;49.010;12.034;2022-12-07T03:56:58;5.75;;;4.68;;
20203;SDS011;10261;49.010;12.034;2022-12-07T03:58:04;7.95;;;5.30;;
20203;SDS011;10261;49.010;12.034;2022-12-07T03:59:08;7.00;;;5.78;;
20203;SDS011;10261;49.010;12.034;2022-12-07T04:00:14;6.88;;;5.00;;
20203;SDS011;10261;49.010;12.034;2022-12-07T04:01:17;8.80;;;5.72;;
20203;SDS011;10261;49.010;12.034;2022-12-07T04:02:20;6.47;;;5.78;;
20203;SDS011;10261;49.010;12.034;2022-12-07T04:03:26;6.72;;;5.15;;
20203;SDS011;10261;49.010;12.034;2022-12-07T04:04:29;6.07;;;4.43;;
20203;SDS011;10261;49.010;12.034;2022-12-07T04:05:31;6.70;;;5.47;;
20203;SDS011;10261;49.010;12.034;2022-12-07T04:06:34;6.10;;;5.05;;
20203;SDS011;10261;49.010;12.034;2022-12-07T04:07:36;8.18;;;6.00;;
20203;SDS011;10261;49.010;12.034;2022-12-07T04:08:40;8.52;;;4.90;;
20203;SDS011;10261;49.010;12.034;2022-12-07T04:09:42;6.40;;;5.00;;
20203;SDS011;10261;49.010;12.034;2022-12-07T04:10:45;8.57;;;5.43;;
20203;SDS011;10261;49.010;12.034;2022-12-07T04:11:47;6.03;;;5.22;;
20203;SDS011;10261;49.010;12.034;2022-12-07T04:12:50;6.97;;;5.68;;
20203;SDS011;10261;49.010;12.034;2022-12-07T04:13:52;6.25;;;5.10;;
20203;SDS011;10261;49.010;12.034;2022-12-07T04:15:12;6.22;;;4.28;;
20203;SDS011;10261;49.010;12.034;2022-12-07T04:16:15;7.65;;;4.90;;
20203;SDS011;10261;49.010;12.034;2022-12-07T04:17:17;7.30;;;5.25;;
20203;SDS011;10261;49.010;12.034;2022-12-07T04:18:20;6.50;;;5.20;;
20203;SDS011;10261;49.010;12.034;2022-12-07T04:19:24;6.65;;;5.50;;
20203;SDS011;10261;49.010;12.034;2022-12-07T04:20:28;7.90;;;5.47;;
20203;SDS011;10261;49.010;12.034;2022-12-07T04:21:30;7.28;;;5.10;;
20203;SDS011;10261;49.010;12.034;2022-12-07T04:22:33;7.63;;;5.40;;
20203;SDS011;10261;49.010;12.034;2022-12-07T04:23:35;6.53;;;5.25;;
20203;SDS011;10261;49.010;12.034;2022-12-07T04:24:38;8.00;;;5.50;;
20203;SDS011;10261;49.010;12.034;2022-12-07T04:25:40;5.82;;;5.18;;
20203;SDS011;10261;49.010;12.034;2022-12-07T04:26:44;8.95;;;5.40;;
20203;SDS011;10261;49.010;12.034;2022-12-07T04:27:46;7.15;;;5.65;;
20203;SDS011;10261;49.010;12.034;2022-12-07T04:28:49;7.30;;;5.53;;
20203;SDS011;10261;49.010;12.034;2022-12-07T04:29:51;5.35;;;4.65;;
20203;SDS011;10261;49.010;12.034;2022-12-07T04:30:56;7.95;;;6.45;;
20203;SDS011;10261;49.010;12.034;2022-12-07T04:31:58;6.43;;;5.10;;
20203;SDS011;10261;49.010;12.034;2022-12-07T04:33:01;6.00;;;5.28;;
20203;SDS011;10261;49.010;12.034;2022-12-07T04:34:04;9.25;;;5.70;;
20203;SDS011;10261;49.010;12.034;2022-12-07T04:35:09;7.53;;;5.60;;
20203;SDS011;10261;49.010;12.034;2022-12-07T04:36:11;5.78;;;5.15;;
20203;SDS011;10261;49.010;12.034;2022-12-07T04:37:14;7.07;;;5.68;;
20203;SDS011;10261;49.010;12.034;2022-12-07T04:38:16;5.75;;;4.95;;
20203;SDS011;10261;49.010;12.034;2022-12-07T04:39:20;7.90;;;5.45;;
20203;SDS011;10261;49.010;12.034;2022-12-07T04:40:23;7.32;;;5.93;;
20203;SDS011;10261;49.010;12.034;2022-12-07T04:41:27;6.93;;;5.43;;
20203;SDS011;10261;49.010;12.034;2022-12-07T04:42:29;6.85;;;5.40;;
20203;SDS011;10261;49.010;12.034;2022-12-07T04:43:32;7.80;;;5.63;;
20203;SDS011;10261;49.010;12.034;2022-12-07T04:44:34;6.82;;;4.97;;
20203;SDS011;10261;49.010;12.034;2022-12-07T04:45:37;6.78;;;5.55;;
20203;SDS011;10261;49.010;12.034;2022-12-07T04:46:39;7.95;;;6.00;;
20203;SDS011;10261;49.010;12.034;2022-12-07T04:47:42;8.98;;;6.10;;
20203;SDS011;10261;49.010;12.034;2022-12-07T04:48:44;7.20;;;5.80;;
20203;SDS011;10261;49.010;12.034;2022-12-07T04:49:47;7.63;;;6.20;;
20203;SDS011;10261;49.010;12.034;2022-12-07T04:50:51;10.73;;;7.25;;
20203;SDS011;10261;49.010;12.034;2022-12-07T04:51:54;8.63;;;5.80;;
20203;SDS011;10261;49.010;12.034;2022-12-07T04:52:56;8.73;;;5.93;;
20203;SDS011;10261;49.010;12.034;2022-12-07T04:53:59;8.40;;;5.20;;
20203;SDS011;10261;49.010;12.034;2022-12-07T04:55:01;7.18;;;5.63;;
20203;SDS011;10261;49.010;12.034;2022-12-07T04:56:04;8.07;;;6.30;;
20203;SDS011;10261;49.010;12.034;2022-12-07T04:57:06;8.75;;;6.68;;
20203;SDS011;10261;49.010;12.034;2022-12-07T04:58:09;6.18;;;5.45;;
20203;SDS011;10261;49.010;12.034;2022-12-07T04:59:11;9.23;;;5.68;;
20203;SDS011;10261;49.010;12.034;2022-12-07T05:00:15;7.50;;;5.43;;
20203;SDS011;10261;49.010;12.034;2022-12-07T05:01:18;10.52;;;7.15;;
20203;SDS011;10261;49.010;12.034;2022-12-07T05:02:21;6.75;;;5.15;;
20203;SDS011;10261;49.010;12.034;2022-12-07T05:03:23;7.82;;;5.32;;
20203;SDS011;10261;49.010;12.034;2022-12-07T05:04:27;8.68;;;6.13;;
20203;SDS011;10261;49.010;12.034;2022-12-07T05:05:29;8.20;;;6.07;;
20203;SDS011;10261;49.010;12.034;2022-12-07T05:06:33;7.72;;;5.35;;
20203;SDS011;10261;49.010;12.034;2022-12-07T05:07:35;8.60;;;6.45;;
20203;SDS011;10261;49.010;12.034;2022-12-07T05:08:38;6.22;;;4.97;;
20203;SDS011;10261;49.010;12.034;2022-12-07T05:09:40;7.82;;;6.05;;
20203;SDS011;10261;49.010;12.034;2022-12-07T05:10:43;7.60;;;5.53;;
20203;SDS011;10261;49.010;12.034;2022-12-07T05:11:45;5.82;;;5.22;;
20203;SDS011;10261;49.010;12.034;2022-12-07T05:12:48;6.35;;;5.30;;
20203;SDS011;10261;49.010;12.034;2022-12-07T05:13:50;8.93;;;5.85;;
20203;SDS011;10261;49.010;12.034;2022-12-07T05:14:53;7.70;;;6.05;;
20203;SDS011;10261;49.010;12.034;2022-12-07T05:15:56;7.53;;;5.72;;
20203;SDS011;10261;49.010;12.034;2022-12-07T05:16:58;7.28;;;5.65;;
20203;SDS011;10261;49.010;12.034;2022-12-07T05:18:02;9.90;;;5.57;;
20203;SDS011;10261;49.010;12.034;2022-12-07T05:19:04;17.73;;;9.80;;
20203;SDS011;10261;49.010;12.034;2022-12-07T05:20:08;18.63;;;10.88;;
20203;SDS011;10261;49.010;12.034;2022-12-07T05:21:11;21.33;;;12.38;;
20203;SDS011;10261;49.010;12.034;2022-12-07T05:22:15;12.20;;;9.00;;
20203;SDS011;10261;49.010;12.034;2022-12-07T05:23:18;10.80;;;6.88;;
20203;SDS011;10261;49.010;12.034;2022-12-07T05:24:20;10.40;;;6.97;;
20203;SDS011;10261;49.010;12.034;2022-12-07T05:25:23;13.20;;;9.25;;
20203;SDS011;10261;49.010;12.034;2022-12-07T05:26:25;25.10;;;13.50;;
20203;SDS011;10261;49.010;12.034;2022-12-07T05:27:28;56.30;;;25.20;;
20203;SDS011;10261;49.010;12.034;2022-12-07T05:28:30;30.60;;;16.42;;
20203;SDS011;10261;49.010;12.034;2022-12-07T05:29:33;17.17;;;11.07;;
20203;SDS011;10261;49.010;12.034;2022-12-07T05:30:35;15.77;;;8.50;;
20203;SDS011;10261;49.010;12.034;2022-12-07T05:31:38;11.65;;;7.75;;
20203;SDS011;10261;49.010;12.034;2022-12-07T05:32:40;10.98;;;6.88;;
20203;SDS011;10261;49.010;12.034;2022-12-07T05:33:43;11.68;;;7.80;;
20203;SDS011;10261;49.010;12.034;2022-12-07T05:34:45;13.18;;;8.05;;
20203;SDS011;10261;49.010;12.034;2022-12-07T05:35:49;12.05;;;7.82;;
20203;SDS011;10261;49.010;12.034;2022-12-07T05:36:51;9.30;;;5.45;;
20203;SDS011;10261;49.010;12.034;2022-12-07T05:37:55;8.65;;;5.18;;
20203;SDS011;10261;49.010;12.034;2022-12-07T05:38:58;6.93;;;4.95;;
20203;SDS011;10261;49.010;12.034;2022-12-07T05:40:01;7.70;;;5.75;;
20203;SDS011;10261;49.010;12.034;2022-12-07T05:41:05;7.75;;;5.57;;
20203;SDS011;10261;49.010;12.034;2022-12-07T05:42:09;8.38;;;5.30;;
20203;SDS011;10261;49.010;12.034;2022-12-07T05:43:14;5.50;;;4.45;;
20203;SDS011;10261;49.010;12.034;2022-12-07T05:44:16;8.30;;;5.70;;
20203;SDS011;10261;49.010;12.034;2022-12-07T05:45:19;6.35;;;4.82;;
20203;SDS011;10261;49.010;12.034;2022-12-07T05:46:21;5.80;;;4.82;;
20203;SDS011;10261;49.010;12.034;2022-12-07T05:47:24;7.55;;;4.95;;
20203;SDS011;10261;49.010;12.034;2022-12-07T05:48:26;6.18;;;5.15;;
20203;SDS011;10261;49.010;12.034;2022-12-07T05:49:30;7.00;;;5.35;;
20203;SDS011;10261;49.010;12.034;2022-12-07T05:50:32;6.85;;;5.07;;
20203;SDS011;10261;49.010;12.034;2022-12-07T05:51:34;6.30;;;4.78;;
20203;SDS011;10261;49.010;12.034;2022-12-07T05:52:36;8.65;;;5.72;;
20203;SDS011;10261;49.010;12.034;2022-12-07T05:53:41;6.72;;;4.28;;
20203;SDS011;10261;49.010;12.034;2022-12-07T05:54:43;6.45;;;4.93;;
20203;SDS011;10261;49.010;12.034;2022-12-07T05:55:46;8.85;;;5.75;;
20203;SDS011;10261;49.010;12.034;2022-12-07T05:56:48;8.75;;;5.72;;
20203;SDS011;10261;49.010;12.034;2022-12-07T05:57:51;6.30;;;4.35;;
20203;SDS011;10261;49.010;12.034;2022-12-07T05:59:08;7.00;;;4.68;;
20203;SDS011;10261;49.010;12.034;2022-12-07T06:00:25;6.72;;;4.85;;
20203;SDS011;10261;49.010;12.034;2022-12-07T06:01:28;12.40;;;7.15;;
20203;SDS011;10261;49.010;12.034;2022-12-07T06:02:30;9.27;;;7.13;;
20203;SDS011;10261;49.010;12.034;2022-12-07T06:03:33;8.35;;;6.78;;
20203;SDS011;10261;49.010;12.034;2022-12-07T06:04:36;8.52;;;6.40;;
20203;SDS011;10261;49.010;12.034;2022-12-07T06:05:40;15.68;;;7.35;;
20203;SDS011;10261;49.010;12.034;2022-12-07T06:06:42;11.75;;;7.38;;
20203;SDS011;10261;49.010;12.034;2022-12-07T06:07:45;9.32;;;6.38;;
20203;SDS011;10261;49.010;12.034;2022-12-07T06:08:49;12.07;;;7.20;;
20203;SDS011;10261;49.010;12.034;2022-12-07T06:09:52;7.65;;;5.55;;
20203;SDS011;10261;49.010;12.034;2022-12-07T06:10:55;11.70;;;5.88;;
20203;SDS011;10261;49.010;12.034;2022-12-07T06:12:12;6.60;;;5.18;;
20203;SDS011;10261;49.010;12.034;2022-12-07T06:13:32;7.38;;;5.57;;
20203;SDS011;10261;49.010;12.034;2022-12-07T06:14:35;8.27;;;5.93;;
20203;SDS011;10261;49.010;12.034;2022-12-07T06:15:38;10.93;;;5.15;;
20203;SDS011;10261;49.010;12.034;2022-12-07T06:16:40;5.32;;;4.82;;
20203;SDS011;10261;49.010;12.034;2022-12-07T06:17:44;5.97;;;4.95;;
20203;SDS011;10261;49.010;12.034;2022-12-07T06:18:46;7.82;;;4.90;;
20203;SDS011;10261;49.010;12.034;2022-12-07T06:19:49;7.85;;;6.00;;
20203;SDS011;10261;49.010;12.034;2022-12-07T06:20:52;8.35;;;5.63;;
20203;SDS011;10261;49.010;12.034;2022-12-07T06:21:54;8.48;;;5.88;;
20203;SDS011;10261;49.010;12.034;2022-12-07T06:22:57;8.52;;;5.13;;
20203;SDS011;10261;49.010;12.034;2022-12-07T06:24:02;9.07;;;5.75;;
20203;SDS011;10261;49.010;12.034;2022-12-07T06:25:04;8.82;;;5.05;;
20203;SDS011;10261;49.010;12.034;2022-12-07T06:26:10;7.55;;;5.47;;